sensor_id;sensor_type;location;lat;lon;timestamp;P1;durP1;ratioP1;P2;durP2;ratioP2
19231;SDS011;9750;48.730;10.294;2023-05-20T00:32:59;5.30;;;4.80;;
19231;SDS011;9750;48.730;10.294;2023-05-20T00:36:48;5.70;;;5.10;;
19231;SDS011;9750;48.730;10.294;2023-05-20T00:39:43;6.63;;;5.57;;
19231;SDS011;9750;48.730;10.294;2023-05-20T00:45:45;6.10;;;5.47;;
19231;SDS011;9750;48.730;10.294;2023-05-20T01:10:15;7.87;;;7.03;;
19231;SDS011;9750;48.730;10.294;2023-05-20T01:12:49;10.80;;;8.50;;
19231;SDS011;9750;48.730;10.294;2023-05-20T01:15:20;7.90;;;7.10;;
19231;SDS011;9750;48.730;10.294;2023-05-20T01:17:50;8.93;;;7.77;;
19231;SDS011;9750;48.730;10.294;2023-05-20T01:20:26;7.73;;;6.93;;
19231;SDS011;9750;48.730;10.294;2023-05-20T01:22:58;7.37;;;6.67;;
19231;SDS011;9750;48.730;10.294;2023-05-20T01:25:25;9.07;;;7.33;;
19231;SDS011;9750;48.730;10.294;2023-05-20T01:27:55;16.93;;;12.13;;
19231;SDS011;9750;48.730;10.294;2023-05-20T01:30:24;9.97;;;8.40;;
19231;SDS011;9750;48.730;10.294;2023-05-20T01:32:57;7.73;;;6.97;;
19231;SDS011;9750;48.730;10.294;2023-05-20T01:35:31;7.70;;;6.47;;
19231;SDS011;9750;48.730;10.294;2023-05-20T01:38:01;9.80;;;7.47;;
19231;SDS011;9750;48.730;10.294;2023-05-20T01:40:32;8.10;;;7.17;;
19231;SDS011;9750;48.730;10.294;2023-05-20T01:46:52;11.37;;;7.87;;
19231;SDS011;9750;48.730;10.294;2023-05-20T01:49:51;7.10;;;6.40;;
19231;SDS011;9750;48.730;10.294;2023-05-20T01:58:52;7.03;;;6.30;;
19231;SDS011;9750;48.730;10.294;2023-05-20T02:02:05;10.57;;;8.30;;
19231;SDS011;9750;48.730;10.294;2023-05-20T02:04:54;6.83;;;6.07;;
19231;SDS011;9750;48.730;10.294;2023-05-20T02:07:59;8.40;;;7.27;;
19231;SDS011;9750;48.730;10.294;2023-05-20T02:10:36;10.63;;;8.30;;
19231;SDS011;9750;48.730;10.294;2023-05-20T02:13:57;7.90;;;6.73;;
19231;SDS011;9750;48.730;10.294;2023-05-20T02:24:10;7.83;;;7.03;;
19231;SDS011;9750;48.730;10.294;2023-05-20T02:26:33;7.10;;;6.40;;
19231;SDS011;9750;48.730;10.294;2023-05-20T02:45:54;9.30;;;8.20;;
19231;SDS011;9750;48.730;10.294;2023-05-20T03:10:22;8.23;;;7.20;;
19231;SDS011;9750;48.730;10.294;2023-05-20T03:14:28;7.03;;;6.33;;
19231;SDS011;9750;48.730;10.294;2023-05-20T03:16:36;8.00;;;7.17;;
19231;SDS011;9750;48.730;10.294;2023-05-20T03:19:37;8.10;;;7.37;;
19231;SDS011;9750;48.730;10.294;2023-05-20T03:29:35;7.77;;;7.07;;
19231;SDS011;9750;48.730;10.294;2023-05-20T03:32:48;9.63;;;8.07;;
19231;SDS011;9750;48.730;10.294;2023-05-20T03:35:40;8.70;;;7.90;;
19231;SDS011;9750;48.730;10.294;2023-05-20T03:38:18;9.27;;;6.93;;
19231;SDS011;9750;48.730;10.294;2023-05-20T03:41:00;8.37;;;7.57;;
19231;SDS011;9750;48.730;10.294;2023-05-20T03:58:10;7.63;;;6.93;;
19231;SDS011;9750;48.730;10.294;2023-05-20T04:23:33;7.73;;;7.03;;
19231;SDS011;9750;48.730;10.294;2023-05-20T04:30:05;8.17;;;7.10;;
19231;SDS011;9750;48.730;10.294;2023-05-20T04:32:34;8.27;;;7.47;;
19231;SDS011;9750;48.730;10.294;2023-05-20T04:35:03;8.07;;;7.27;;
19231;SDS011;9750;48.730;10.294;2023-05-20T04:37:40;8.20;;;7.50;;
19231;SDS011;9750;48.730;10.294;2023-05-20T04:43:37;8.60;;;7.80;;
19231;SDS011;9750;48.730;10.294;2023-05-20T04:46:49;7.83;;;7.07;;
19231;SDS011;9750;48.730;10.294;2023-05-20T04:49:39;9.03;;;8.13;;
19231;SDS011;9750;48.730;10.294;2023-05-20T04:52:07;8.47;;;7.67;;
19231;SDS011;9750;48.730;10.294;2023-05-20T04:54:38;7.90;;;7.17;;
19231;SDS011;9750;48.730;10.294;2023-05-20T04:57:05;8.10;;;7.10;;
19231;SDS011;9750;48.730;10.294;2023-05-20T04:59:36;9.37;;;7.90;;
19231;SDS011;9750;48.730;10.294;2023-05-20T05:02:06;8.20;;;7.40;;
19231;SDS011;9750;48.730;10.294;2023-05-20T05:04:37;10.83;;;9.10;;
19231;SDS011;9750;48.730;10.294;2023-05-20T05:07:04;10.17;;;8.67;;
19231;SDS011;9750;48.730;10.294;2023-05-20T05:09:32;9.03;;;8.13;;
19231;SDS011;9750;48.730;10.294;2023-05-20T05:11:59;8.43;;;7.63;;
19231;SDS011;9750;48.730;10.294;2023-05-20T05:14:28;8.70;;;7.77;;
19231;SDS011;9750;48.730;10.294;2023-05-20T05:16:57;9.50;;;8.60;;
19231;SDS011;9750;48.730;10.294;2023-05-20T05:19:25;10.70;;;8.20;;
19231;SDS011;9750;48.730;10.294;2023-05-20T05:21:52;9.60;;;8.07;;
19231;SDS011;9750;48.730;10.294;2023-05-20T05:24:19;8.70;;;7.90;;
19231;SDS011;9750;48.730;10.294;2023-05-20T05:26:47;8.83;;;7.93;;
19231;SDS011;9750;48.730;10.294;2023-05-20T05:29:18;9.37;;;8.30;;
19231;SDS011;9750;48.730;10.294;2023-05-20T05:31:46;9.33;;;8.23;;
19231;SDS011;9750;48.730;10.294;2023-05-20T05:34:15;9.83;;;8.37;;
19231;SDS011;9750;48.730;10.294;2023-05-20T05:36:42;9.67;;;8.77;;
19231;SDS011;9750;48.730;10.294;2023-05-20T05:39:09;8.27;;;7.47;;
19231;SDS011;9750;48.730;10.294;2023-05-20T05:41:37;8.97;;;8.07;;
19231;SDS011;9750;48.730;10.294;2023-05-20T05:44:04;10.87;;;8.60;;
19231;SDS011;9750;48.730;10.294;2023-05-20T05:46:31;9.23;;;8.33;;
19231;SDS011;9750;48.730;10.294;2023-05-20T05:48:59;9.30;;;8.40;;
19231;SDS011;9750;48.730;10.294;2023-05-20T05:51:28;9.87;;;8.87;;
19231;SDS011;9750;48.730;10.294;2023-05-20T05:53:55;9.83;;;8.83;;
19231;SDS011;9750;48.730;10.294;2023-05-20T05:59:45;10.53;;;8.07;;
19231;SDS011;9750;48.730;10.294;2023-05-20T06:02:12;8.63;;;7.83;;
19231;SDS011;9750;48.730;10.294;2023-05-20T06:04:39;8.60;;;7.77;;
19231;SDS011;9750;48.730;10.294;2023-05-20T06:07:08;8.40;;;7.60;;
19231;SDS011;9750;48.730;10.294;2023-05-20T06:09:36;8.53;;;7.70;;
19231;SDS011;9750;48.730;10.294;2023-05-20T06:12:04;9.23;;;8.33;;
19231;SDS011;9750;48.730;10.294;2023-05-20T06:14:31;9.07;;;8.17;;
19231;SDS011;9750;48.730;10.294;2023-05-20T06:16:59;9.37;;;8.50;;
19231;SDS011;9750;48.730;10.294;2023-05-20T06:19:26;8.83;;;7.93;;
19231;SDS011;9750;48.730;10.294;2023-05-20T06:21:55;9.17;;;8.27;;
19231;SDS011;9750;48.730;10.294;2023-05-20T06:24:24;9.50;;;8.50;;
19231;SDS011;9750;48.730;10.294;2023-05-20T06:26:52;9.03;;;8.13;;
19231;SDS011;9750;48.730;10.294;2023-05-20T06:29:19;9.30;;;8.40;;
19231;SDS011;9750;48.730;10.294;2023-05-20T06:31:46;9.13;;;8.33;;
19231;SDS011;9750;48.730;10.294;2023-05-20T06:34:14;8.97;;;8.10;;
19231;SDS011;9750;48.730;10.294;2023-05-20T06:36:41;9.30;;;8.47;;
19231;SDS011;9750;48.730;10.294;2023-05-20T06:39:08;11.30;;;9.20;;
19231;SDS011;9750;48.730;10.294;2023-05-20T06:41:38;10.37;;;8.90;;
19231;SDS011;9750;48.730;10.294;2023-05-20T06:44:06;10.43;;;9.00;;
19231;SDS011;9750;48.730;10.294;2023-05-20T06:46:33;9.30;;;8.17;;
19231;SDS011;9750;48.730;10.294;2023-05-20T06:49:01;12.90;;;11.60;;
19231;SDS011;9750;48.730;10.294;2023-05-20T06:54:16;10.23;;;9.13;;
19231;SDS011;9750;48.730;10.294;2023-05-20T06:56:52;9.60;;;7.93;;
19231;SDS011;9750;48.730;10.294;2023-05-20T07:00:26;8.83;;;7.93;;
19231;SDS011;9750;48.730;10.294;2023-05-20T07:02:31;9.93;;;8.93;;
19231;SDS011;9750;48.730;10.294;2023-05-20T07:08:04;9.03;;;8.23;;
19231;SDS011;9750;48.730;10.294;2023-05-20T07:10:32;9.10;;;8.20;;
19231;SDS011;9750;48.730;10.294;2023-05-20T07:13:01;8.90;;;8.00;;
19231;SDS011;9750;48.730;10.294;2023-05-20T07:15:28;9.27;;;8.37;;
19231;SDS011;9750;48.730;10.294;2023-05-20T07:17:56;8.87;;;7.97;;
19231;SDS011;9750;48.730;10.294;2023-05-20T07:20:23;9.53;;;8.60;;
19231;SDS011;9750;48.730;10.294;2023-05-20T07:22:50;8.20;;;7.50;;
19231;SDS011;9750;48.730;10.294;2023-05-20T07:25:18;8.23;;;7.43;;
19231;SDS011;9750;48.730;10.294;2023-05-20T07:27:45;8.10;;;7.40;;
19231;SDS011;9750;48.730;10.294;2023-05-20T07:30:17;10.50;;;8.20;;
19231;SDS011;9750;48.730;10.294;2023-05-20T07:32:55;8.47;;;7.63;;
19231;SDS011;9750;48.730;10.294;2023-05-20T07:35:33;9.17;;;7.73;;
19231;SDS011;9750;48.730;10.294;2023-05-20T07:38:04;7.47;;;6.80;;
19231;SDS011;9750;48.730;10.294;2023-05-20T07:40:31;7.40;;;6.70;;
19231;SDS011;9750;48.730;10.294;2023-05-20T07:43:03;7.83;;;6.93;;
19231;SDS011;9750;48.730;10.294;2023-05-20T07:45:33;7.80;;;7.00;;
19231;SDS011;9750;48.730;10.294;2023-05-20T07:48:01;7.73;;;7.03;;
19231;SDS011;9750;48.730;10.294;2023-05-20T07:50:30;7.83;;;7.03;;
19231;SDS011;9750;48.730;10.294;2023-05-20T07:52:58;8.03;;;7.23;;
19231;SDS011;9750;48.730;10.294;2023-05-20T07:55:32;6.97;;;6.27;;
19231;SDS011;9750;48.730;10.294;2023-05-20T07:58:00;7.60;;;6.90;;
19231;SDS011;9750;48.730;10.294;2023-05-20T08:00:28;8.43;;;7.57;;
19231;SDS011;9750;48.730;10.294;2023-05-20T08:03:00;8.43;;;7.53;;
19231;SDS011;9750;48.730;10.294;2023-05-20T08:05:27;7.87;;;7.17;;
19231;SDS011;9750;48.730;10.294;2023-05-20T08:07:55;8.30;;;7.27;;
19231;SDS011;9750;48.730;10.294;2023-05-20T08:10:22;8.77;;;7.83;;
19231;SDS011;9750;48.730;10.294;2023-05-20T08:13:11;7.00;;;6.30;;
19231;SDS011;9750;48.730;10.294;2023-05-20T08:15:40;7.37;;;6.77;;
19231;SDS011;9750;48.730;10.294;2023-05-20T08:18:15;8.87;;;7.33;;
19231;SDS011;9750;48.730;10.294;2023-05-20T08:20:42;7.67;;;6.73;;
19231;SDS011;9750;48.730;10.294;2023-05-20T08:23:10;7.10;;;6.50;;
19231;SDS011;9750;48.730;10.294;2023-05-20T08:25:37;6.80;;;6.20;;
19231;SDS011;9750;48.730;10.294;2023-05-20T08:28:04;7.47;;;6.77;;
19231;SDS011;9750;48.730;10.294;2023-05-20T08:30:32;9.33;;;6.67;;
19231;SDS011;9750;48.730;10.294;2023-05-20T08:33:01;6.77;;;6.10;;
19231;SDS011;9750;48.730;10.294;2023-05-20T08:37:59;6.97;;;6.30;;
19231;SDS011;9750;48.730;10.294;2023-05-20T08:40:29;7.30;;;6.70;;
19231;SDS011;9750;48.730;10.294;2023-05-20T08:42:57;7.40;;;6.70;;
19231;SDS011;9750;48.730;10.294;2023-05-20T08:45:26;6.60;;;6.00;;
19231;SDS011;9750;48.730;10.294;2023-05-20T08:47:56;7.00;;;6.40;;
19231;SDS011;9750;48.730;10.294;2023-05-20T08:50:33;7.20;;;6.60;;
19231;SDS011;9750;48.730;10.294;2023-05-20T08:53:07;6.97;;;6.37;;
19231;SDS011;9750;48.730;10.294;2023-05-20T08:55:36;8.37;;;6.13;;
19231;SDS011;9750;48.730;10.294;2023-05-20T08:58:11;7.10;;;6.40;;
19231;SDS011;9750;48.730;10.294;2023-05-20T09:00:42;7.13;;;6.17;;
19231;SDS011;9750;48.730;10.294;2023-05-20T09:03:20;6.87;;;6.17;;
19231;SDS011;9750;48.730;10.294;2023-05-20T09:05:52;7.37;;;6.60;;
19231;SDS011;9750;48.730;10.294;2023-05-20T09:08:23;6.80;;;6.20;;
19231;SDS011;9750;48.730;10.294;2023-05-20T09:10:51;6.63;;;5.93;;
19231;SDS011;9750;48.730;10.294;2023-05-20T09:13:19;6.80;;;6.10;;
19231;SDS011;9750;48.730;10.294;2023-05-20T09:15:59;6.60;;;6.00;;
19231;SDS011;9750;48.730;10.294;2023-05-20T09:18:32;6.20;;;5.60;;
19231;SDS011;9750;48.730;10.294;2023-05-20T09:21:05;6.60;;;5.70;;
19231;SDS011;9750;48.730;10.294;2023-05-20T09:23:36;6.57;;;5.77;;
19231;SDS011;9750;48.730;10.294;2023-05-20T09:26:25;6.33;;;5.70;;
19231;SDS011;9750;48.730;10.294;2023-05-20T09:28:57;7.00;;;5.93;;
19231;SDS011;9750;48.730;10.294;2023-05-20T09:31:46;7.13;;;6.07;;
19231;SDS011;9750;48.730;10.294;2023-05-20T09:34:23;6.23;;;5.63;;
19231;SDS011;9750;48.730;10.294;2023-05-20T09:36:56;5.93;;;5.43;;
19231;SDS011;9750;48.730;10.294;2023-05-20T09:39:26;5.83;;;5.33;;
19231;SDS011;9750;48.730;10.294;2023-05-20T09:44:57;6.63;;;6.03;;
19231;SDS011;9750;48.730;10.294;2023-05-20T09:47:24;6.23;;;5.63;;
19231;SDS011;9750;48.730;10.294;2023-05-20T09:49:53;6.70;;;6.20;;
19231;SDS011;9750;48.730;10.294;2023-05-20T09:52:23;6.00;;;5.40;;
19231;SDS011;9750;48.730;10.294;2023-05-20T09:54:52;6.33;;;5.73;;
19231;SDS011;9750;48.730;10.294;2023-05-20T09:57:21;5.87;;;5.30;;
19231;SDS011;9750;48.730;10.294;2023-05-20T09:59:50;6.30;;;5.70;;
19231;SDS011;9750;48.730;10.294;2023-05-20T10:02:18;6.97;;;6.00;;
19231;SDS011;9750;48.730;10.294;2023-05-20T10:04:47;6.17;;;5.57;;
19231;SDS011;9750;48.730;10.294;2023-05-20T10:10:21;6.20;;;5.60;;
19231;SDS011;9750;48.730;10.294;2023-05-20T10:13:13;7.43;;;5.80;;
19231;SDS011;9750;48.730;10.294;2023-05-20T10:15:54;7.35;;;5.43;;
19231;SDS011;9750;48.730;10.294;2023-05-20T10:18:32;6.38;;;5.78;;
19231;SDS011;9750;48.730;10.294;2023-05-20T10:21:15;5.70;;;5.13;;
19231;SDS011;9750;48.730;10.294;2023-05-20T10:23:47;6.30;;;5.47;;
19231;SDS011;9750;48.730;10.294;2023-05-20T10:29:03;6.30;;;5.50;;
19231;SDS011;9750;48.730;10.294;2023-05-20T10:31:55;5.90;;;5.40;;
19231;SDS011;9750;48.730;10.294;2023-05-20T10:34:23;6.00;;;5.43;;
19231;SDS011;9750;48.730;10.294;2023-05-20T10:36:58;5.82;;;5.32;;
19231;SDS011;9750;48.730;10.294;2023-05-20T10:39:28;6.45;;;5.45;;
19231;SDS011;9750;48.730;10.294;2023-05-20T10:42:04;6.00;;;5.50;;
19231;SDS011;9750;48.730;10.294;2023-05-20T10:51:13;6.40;;;5.40;;
19231;SDS011;9750;48.730;10.294;2023-05-20T10:53:54;5.72;;;5.00;;
19231;SDS011;9750;48.730;10.294;2023-05-20T10:56:24;5.18;;;4.78;;
19231;SDS011;9750;48.730;10.294;2023-05-20T10:58:52;5.78;;;4.82;;
19231;SDS011;9750;48.730;10.294;2023-05-20T11:01:36;5.60;;;5.10;;
19231;SDS011;9750;48.730;10.294;2023-05-20T11:04:26;7.25;;;5.13;;
19231;SDS011;9750;48.730;10.294;2023-05-20T11:06:55;6.00;;;5.40;;
19231;SDS011;9750;48.730;10.294;2023-05-20T11:09:23;6.57;;;5.75;;
19231;SDS011;9750;48.730;10.294;2023-05-20T11:11:52;5.70;;;5.20;;
19231;SDS011;9750;48.730;10.294;2023-05-20T11:14:20;6.05;;;5.50;;
19231;SDS011;9750;48.730;10.294;2023-05-20T11:16:55;7.63;;;5.88;;
19231;SDS011;9750;48.730;10.294;2023-05-20T11:19:26;5.78;;;5.20;;
19231;SDS011;9750;48.730;10.294;2023-05-20T11:25:03;7.90;;;5.38;;
19231;SDS011;9750;48.730;10.294;2023-05-20T11:27:37;9.32;;;5.80;;
19231;SDS011;9750;48.730;10.294;2023-05-20T11:30:27;6.38;;;5.85;;
19231;SDS011;9750;48.730;10.294;2023-05-20T11:33:18;6.20;;;5.50;;
19231;SDS011;9750;48.730;10.294;2023-05-20T11:35:53;6.30;;;5.70;;
19231;SDS011;9750;48.730;10.294;2023-05-20T11:41:36;5.70;;;5.20;;
19231;SDS011;9750;48.730;10.294;2023-05-20T11:44:21;5.95;;;5.45;;
19231;SDS011;9750;48.730;10.294;2023-05-20T11:46:50;6.28;;;5.78;;
19231;SDS011;9750;48.730;10.294;2023-05-20T11:49:47;5.40;;;5.00;;
19231;SDS011;9750;48.730;10.294;2023-05-20T11:52:15;4.53;;;4.13;;
19231;SDS011;9750;48.730;10.294;2023-05-20T11:54:42;4.88;;;4.47;;
19231;SDS011;9750;48.730;10.294;2023-05-20T11:57:10;5.40;;;4.30;;
19231;SDS011;9750;48.730;10.294;2023-05-20T11:59:39;5.88;;;5.07;;
19231;SDS011;9750;48.730;10.294;2023-05-20T12:02:12;5.15;;;4.65;;
19231;SDS011;9750;48.730;10.294;2023-05-20T12:07:19;5.72;;;4.50;;
19231;SDS011;9750;48.730;10.294;2023-05-20T12:09:47;5.68;;;5.15;;
19231;SDS011;9750;48.730;10.294;2023-05-20T12:12:20;5.95;;;4.63;;
19231;SDS011;9750;48.730;10.294;2023-05-20T12:14:55;5.68;;;5.15;;
19231;SDS011;9750;48.730;10.294;2023-05-20T12:17:25;6.00;;;5.40;;
19231;SDS011;9750;48.730;10.294;2023-05-20T12:19:53;5.70;;;5.20;;
19231;SDS011;9750;48.730;10.294;2023-05-20T12:22:21;5.22;;;4.82;;
19231;SDS011;9750;48.730;10.294;2023-05-20T12:24:49;5.35;;;4.90;;
19231;SDS011;9750;48.730;10.294;2023-05-20T12:27:16;5.18;;;4.65;;
19231;SDS011;9750;48.730;10.294;2023-05-20T12:29:47;5.10;;;4.68;;
19231;SDS011;9750;48.730;10.294;2023-05-20T12:32:16;5.25;;;4.75;;
19231;SDS011;9750;48.730;10.294;2023-05-20T12:34:45;5.63;;;5.13;;
19231;SDS011;9750;48.730;10.294;2023-05-20T12:37:45;5.35;;;4.88;;
19231;SDS011;9750;48.730;10.294;2023-05-20T12:40:01;5.07;;;4.68;;
19231;SDS011;9750;48.730;10.294;2023-05-20T13:17:04;5.38;;;4.88;;
19231;SDS011;9750;48.730;10.294;2023-05-20T13:19:59;5.63;;;5.10;;
19231;SDS011;9750;48.730;10.294;2023-05-20T13:28:16;6.88;;;5.07;;
19231;SDS011;9750;48.730;10.294;2023-05-20T13:31:00;5.10;;;4.50;;
19231;SDS011;9750;48.730;10.294;2023-05-20T13:33:42;5.22;;;4.72;;
19231;SDS011;9750;48.730;10.294;2023-05-20T13:39:17;6.13;;;5.07;;
19231;SDS011;9750;48.730;10.294;2023-05-20T13:42:03;4.97;;;4.38;;
19231;SDS011;9750;48.730;10.294;2023-05-20T13:45:26;5.35;;;4.85;;
19231;SDS011;9750;48.730;10.294;2023-05-20T13:51:15;5.55;;;4.50;;
19231;SDS011;9750;48.730;10.294;2023-05-20T14:00:40;4.30;;;3.85;;
19231;SDS011;9750;48.730;10.294;2023-05-20T14:03:24;4.72;;;4.20;;
19231;SDS011;9750;48.730;10.294;2023-05-20T14:50:38;5.88;;;3.53;;
19231;SDS011;9750;48.730;10.294;2023-05-20T15:03:30;4.22;;;3.70;;
19231;SDS011;9750;48.730;10.294;2023-05-20T15:06:21;5.22;;;3.90;;
19231;SDS011;9750;48.730;10.294;2023-05-20T15:08:52;5.85;;;3.80;;
19231;SDS011;9750;48.730;10.294;2023-05-20T15:11:19;4.90;;;4.40;;
19231;SDS011;9750;48.730;10.294;2023-05-20T15:13:46;4.53;;;4.13;;
19231;SDS011;9750;48.730;10.294;2023-05-20T15:16:15;4.75;;;4.35;;
19231;SDS011;9750;48.730;10.294;2023-05-20T15:18:44;4.80;;;4.40;;
19231;SDS011;9750;48.730;10.294;2023-05-20T15:21:12;4.97;;;4.40;;
19231;SDS011;9750;48.730;10.294;2023-05-20T15:23:39;5.32;;;4.82;;
19231;SDS011;9750;48.730;10.294;2023-05-20T15:26:06;6.80;;;5.03;;
19231;SDS011;9750;48.730;10.294;2023-05-20T15:28:36;6.90;;;5.20;;
19231;SDS011;9750;48.730;10.294;2023-05-20T15:31:03;5.60;;;4.72;;
19231;SDS011;9750;48.730;10.294;2023-05-20T15:33:30;7.57;;;5.07;;
19231;SDS011;9750;48.730;10.294;2023-05-20T15:35:59;5.20;;;4.80;;
19231;SDS011;9750;48.730;10.294;2023-05-20T15:38:26;5.50;;;4.90;;
19231;SDS011;9750;48.730;10.294;2023-05-20T15:40:54;6.45;;;4.50;;
19231;SDS011;9750;48.730;10.294;2023-05-20T15:43:21;5.07;;;4.57;;
19231;SDS011;9750;48.730;10.294;2023-05-20T15:45:48;5.57;;;4.30;;
19231;SDS011;9750;48.730;10.294;2023-05-20T15:51:07;5.28;;;4.75;;
19231;SDS011;9750;48.730;10.294;2023-05-20T15:53:34;4.93;;;4.53;;
19231;SDS011;9750;48.730;10.294;2023-05-20T15:56:02;4.95;;;4.55;;
19231;SDS011;9750;48.730;10.294;2023-05-20T15:58:29;6.78;;;4.70;;
19231;SDS011;9750;48.730;10.294;2023-05-20T16:00:57;7.68;;;4.75;;
19231;SDS011;9750;48.730;10.294;2023-05-20T16:03:24;5.00;;;4.57;;
19231;SDS011;9750;48.730;10.294;2023-05-20T16:05:51;6.38;;;5.00;;
19231;SDS011;9750;48.730;10.294;2023-05-20T16:08:20;5.95;;;4.95;;
19231;SDS011;9750;48.730;10.294;2023-05-20T16:10:48;5.78;;;5.18;;
19231;SDS011;9750;48.730;10.294;2023-05-20T16:13:15;5.88;;;5.25;;
19231;SDS011;9750;48.730;10.294;2023-05-20T16:15:42;6.95;;;5.15;;
19231;SDS011;9750;48.730;10.294;2023-05-20T16:21:23;5.93;;;5.40;;
19231;SDS011;9750;48.730;10.294;2023-05-20T16:23:52;6.30;;;5.70;;
19231;SDS011;9750;48.730;10.294;2023-05-20T16:26:19;6.90;;;5.82;;
19231;SDS011;9750;48.730;10.294;2023-05-20T16:28:46;8.27;;;5.60;;
19231;SDS011;9750;48.730;10.294;2023-05-20T16:31:14;5.60;;;5.10;;
19231;SDS011;9750;48.730;10.294;2023-05-20T16:33:41;7.95;;;5.55;;
19231;SDS011;9750;48.730;10.294;2023-05-20T16:36:08;6.45;;;5.88;;
19231;SDS011;9750;48.730;10.294;2023-05-20T16:38:36;6.47;;;5.72;;
19231;SDS011;9750;48.730;10.294;2023-05-20T16:41:04;9.27;;;5.70;;
19231;SDS011;9750;48.730;10.294;2023-05-20T16:43:32;6.63;;;6.03;;
19231;SDS011;9750;48.730;10.294;2023-05-20T16:45:59;8.05;;;5.70;;
19231;SDS011;9750;48.730;10.294;2023-05-20T16:48:26;6.70;;;6.10;;
19231;SDS011;9750;48.730;10.294;2023-05-20T16:50:53;6.72;;;6.03;;
19231;SDS011;9750;48.730;10.294;2023-05-20T16:53:21;6.82;;;6.32;;
19231;SDS011;9750;48.730;10.294;2023-05-20T16:55:49;7.18;;;6.57;;
19231;SDS011;9750;48.730;10.294;2023-05-20T16:58:18;7.05;;;6.22;;
19231;SDS011;9750;48.730;10.294;2023-05-20T17:00:45;7.20;;;6.50;;
19231;SDS011;9750;48.730;10.294;2023-05-20T17:03:12;7.47;;;6.30;;
19231;SDS011;9750;48.730;10.294;2023-05-20T17:05:42;10.02;;;6.53;;
19231;SDS011;9750;48.730;10.294;2023-05-20T17:08:09;7.90;;;6.30;;
19231;SDS011;9750;48.730;10.294;2023-05-20T17:10:36;7.80;;;6.97;;
19231;SDS011;9750;48.730;10.294;2023-05-20T17:13:04;7.47;;;6.10;;
19231;SDS011;9750;48.730;10.294;2023-05-20T17:15:32;6.82;;;6.22;;
19231;SDS011;9750;48.730;10.294;2023-05-20T17:18:01;7.65;;;6.60;;
19231;SDS011;9750;48.730;10.294;2023-05-20T17:20:28;7.47;;;6.68;;
19231;SDS011;9750;48.730;10.294;2023-05-20T17:22:55;8.95;;;7.03;;
19231;SDS011;9750;48.730;10.294;2023-05-20T17:25:23;6.93;;;6.30;;
19231;SDS011;9750;48.730;10.294;2023-05-20T17:27:50;8.77;;;7.15;;
19231;SDS011;9750;48.730;10.294;2023-05-20T17:30:17;8.07;;;7.03;;
19231;SDS011;9750;48.730;10.294;2023-05-20T17:32:46;12.23;;;7.20;;
19231;SDS011;9750;48.730;10.294;2023-05-20T17:35:14;8.13;;;6.72;;
19231;SDS011;9750;48.730;10.294;2023-05-20T17:37:41;8.90;;;6.82;;
19231;SDS011;9750;48.730;10.294;2023-05-20T17:40:08;9.75;;;6.68;;
19231;SDS011;9750;48.730;10.294;2023-05-20T17:42:37;7.35;;;6.65;;
19231;SDS011;9750;48.730;10.294;2023-05-20T17:45:05;9.77;;;7.25;;
19231;SDS011;9750;48.730;10.294;2023-05-20T17:47:33;7.90;;;7.20;;
19231;SDS011;9750;48.730;10.294;2023-05-20T17:50:02;8.35;;;7.03;;
19231;SDS011;9750;48.730;10.294;2023-05-20T17:52:30;9.98;;;8.35;;
19231;SDS011;9750;48.730;10.294;2023-05-20T17:54:57;7.97;;;7.18;;
19231;SDS011;9750;48.730;10.294;2023-05-20T17:57:25;7.60;;;6.82;;
19231;SDS011;9750;48.730;10.294;2023-05-20T17:59:52;8.27;;;6.88;;
19231;SDS011;9750;48.730;10.294;2023-05-20T18:02:19;7.63;;;6.93;;
19231;SDS011;9750;48.730;10.294;2023-05-20T18:04:46;7.70;;;7.00;;
19231;SDS011;9750;48.730;10.294;2023-05-20T18:07:15;8.50;;;7.57;;
19231;SDS011;9750;48.730;10.294;2023-05-20T18:09:42;9.40;;;8.50;;
19231;SDS011;9750;48.730;10.294;2023-05-20T18:12:10;10.15;;;8.10;;
19231;SDS011;9750;48.730;10.294;2023-05-20T18:14:37;9.38;;;8.48;;
19231;SDS011;9750;48.730;10.294;2023-05-20T18:17:04;11.85;;;7.20;;
19231;SDS011;9750;48.730;10.294;2023-05-20T18:19:32;7.95;;;7.15;;
19231;SDS011;9750;48.730;10.294;2023-05-20T18:21:59;10.25;;;7.72;;
19231;SDS011;9750;48.730;10.294;2023-05-20T18:24:28;8.38;;;7.57;;
19231;SDS011;9750;48.730;10.294;2023-05-20T18:26:55;8.02;;;7.03;;
19231;SDS011;9750;48.730;10.294;2023-05-20T18:29:23;7.72;;;6.95;;
19231;SDS011;9750;48.730;10.294;2023-05-20T18:31:51;8.15;;;7.45;;
19231;SDS011;9750;48.730;10.294;2023-05-20T18:34:18;9.43;;;6.93;;
19231;SDS011;9750;48.730;10.294;2023-05-20T18:36:45;12.45;;;7.78;;
19231;SDS011;9750;48.730;10.294;2023-05-20T18:39:12;8.18;;;7.40;;
19231;SDS011;9750;48.730;10.294;2023-05-20T18:45:26;12.15;;;8.43;;
19231;SDS011;9750;48.730;10.294;2023-05-20T18:47:53;9.95;;;8.30;;
19231;SDS011;9750;48.730;10.294;2023-05-20T18:50:23;8.10;;;7.18;;
19231;SDS011;9750;48.730;10.294;2023-05-20T18:52:50;8.55;;;7.35;;
19231;SDS011;9750;48.730;10.294;2023-05-20T18:55:18;8.07;;;7.38;;
19231;SDS011;9750;48.730;10.294;2023-05-20T18:57:45;8.55;;;7.70;;
19231;SDS011;9750;48.730;10.294;2023-05-20T19:00:13;8.75;;;7.88;;
19231;SDS011;9750;48.730;10.294;2023-05-20T19:02:43;9.13;;;7.80;;
19231;SDS011;9750;48.730;10.294;2023-05-20T19:05:10;10.98;;;8.10;;
19231;SDS011;9750;48.730;10.294;2023-05-20T19:07:38;10.75;;;9.20;;
19231;SDS011;9750;48.730;10.294;2023-05-20T19:10:06;9.10;;;8.23;;
19231;SDS011;9750;48.730;10.294;2023-05-20T19:12:34;8.65;;;7.68;;
19231;SDS011;9750;48.730;10.294;2023-05-20T19:15:01;10.10;;;7.50;;
19231;SDS011;9750;48.730;10.294;2023-05-20T19:17:30;9.90;;;8.05;;
19231;SDS011;9750;48.730;10.294;2023-05-20T19:19:59;9.65;;;7.88;;
19231;SDS011;9750;48.730;10.294;2023-05-20T19:22:26;8.68;;;7.88;;
19231;SDS011;9750;48.730;10.294;2023-05-20T19:24:54;8.75;;;7.80;;
19231;SDS011;9750;48.730;10.294;2023-05-20T19:27:21;8.63;;;7.60;;
19231;SDS011;9750;48.730;10.294;2023-05-20T19:29:48;8.68;;;7.82;;
19231;SDS011;9750;48.730;10.294;2023-05-20T19:32:15;8.68;;;7.88;;
19231;SDS011;9750;48.730;10.294;2023-05-20T19:34:43;9.40;;;8.50;;
19231;SDS011;9750;48.730;10.294;2023-05-20T19:37:12;8.05;;;7.32;;
19231;SDS011;9750;48.730;10.294;2023-05-20T19:39:39;9.00;;;8.07;;
19231;SDS011;9750;48.730;10.294;2023-05-20T19:42:07;8.63;;;7.57;;
19231;SDS011;9750;48.730;10.294;2023-05-20T19:44:35;8.43;;;7.57;;
19231;SDS011;9750;48.730;10.294;2023-05-20T19:47:03;8.10;;;7.30;;
19231;SDS011;9750;48.730;10.294;2023-05-20T19:49:31;9.18;;;8.30;;
19231;SDS011;9750;48.730;10.294;2023-05-20T19:51:59;9.13;;;8.02;;
19231;SDS011;9750;48.730;10.294;2023-05-20T19:54:28;10.02;;;8.05;;
19231;SDS011;9750;48.730;10.294;2023-05-20T19:56:55;8.93;;;8.07;;
19231;SDS011;9750;48.730;10.294;2023-05-20T19:59:23;8.40;;;7.38;;
19231;SDS011;9750;48.730;10.294;2023-05-20T20:01:51;9.07;;;8.18;;
19231;SDS011;9750;48.730;10.294;2023-05-20T20:04:18;9.07;;;8.15;;
19231;SDS011;9750;48.730;10.294;2023-05-20T20:06:45;8.20;;;7.43;;
19231;SDS011;9750;48.730;10.294;2023-05-20T20:09:13;9.60;;;8.02;;
19231;SDS011;9750;48.730;10.294;2023-05-20T20:11:42;10.98;;;8.35;;
19231;SDS011;9750;48.730;10.294;2023-05-20T20:14:09;12.43;;;8.45;;
19231;SDS011;9750;48.730;10.294;2023-05-20T20:16:36;9.20;;;8.20;;
19231;SDS011;9750;48.730;10.294;2023-05-20T20:19:03;13.73;;;9.13;;
19231;SDS011;9750;48.730;10.294;2023-05-20T20:21:31;9.35;;;8.45;;
19231;SDS011;9750;48.730;10.294;2023-05-20T20:24:00;9.90;;;7.90;;
19231;SDS011;9750;48.730;10.294;2023-05-20T20:26:27;11.93;;;9.03;;
19231;SDS011;9750;48.730;10.294;2023-05-20T20:28:56;9.73;;;8.35;;
19231;SDS011;9750;48.730;10.294;2023-05-20T20:31:23;9.75;;;8.75;;
19231;SDS011;9750;48.730;10.294;2023-05-20T20:33:51;9.90;;;8.30;;